createdAt,value
2023-04-07T00:01:10.708Z,101313.84
2023-04-07T00:03:40.864Z,101320.88
2023-04-07T00:06:08.617Z,101317.41
2023-04-07T00:08:36.283Z,101315.66
2023-04-07T00:11:03.850Z,101312.16
2023-04-07T00:13:31.501Z,101314.78
2023-04-07T00:15:59.168Z,101319.19
2023-04-07T00:18:27.220Z,101319.19
2023-04-07T00:20:54.753Z,101318.31
2023-04-07T00:23:22.372Z,101322.66
2023-04-07T00:25:49.960Z,101321.81
2023-04-07T00:28:17.585Z,101322.66
2023-04-07T00:30:45.278Z,101315.72
2023-04-07T00:33:13.110Z,101317.47
2023-04-07T00:35:40.768Z,101317.47
2023-04-07T00:38:08.394Z,101321.88
2023-04-07T00:40:36.539Z,101319.19
2023-04-07T00:43:04.180Z,101317.47
2023-04-07T00:45:31.962Z,101314.00
2023-04-07T00:47:59.773Z,101318.34
2023-04-07T00:50:27.694Z,101321.88
2023-04-07T00:52:57.024Z,101328.91
2023-04-07T00:55:24.735Z,101325.41
2023-04-07T00:57:52.417Z,101322.81
2023-04-07T01:00:20.501Z,101321.03
2023-04-07T01:02:57.315Z,101321.03
2023-04-07T01:05:42.378Z,101323.66
2023-04-07T01:08:24.806Z,101328.03
2023-04-07T01:11:41.170Z,101316.69
2023-04-07T01:14:13.631Z,101320.25
2023-04-07T01:16:49.992Z,101326.34
2023-04-07T01:19:39.803Z,101326.34
2023-04-07T01:22:19.553Z,101321.13
2023-04-07T01:25:18.121Z,101324.66
2023-04-07T01:28:01.421Z,101329.03
2023-04-07T01:30:32.264Z,101319.47
2023-04-07T01:33:02.787Z,101322.09
2023-04-07T01:35:35.886Z,101323.03
2023-04-07T01:38:05.110Z,101330.03
2023-04-07T01:40:35.575Z,101333.53
2023-04-07T01:43:04.727Z,101344.00
2023-04-07T01:45:36.500Z,101333.56
2023-04-07T01:48:08.397Z,101336.22
2023-04-07T01:50:38.443Z,101336.25
2023-04-07T01:53:07.795Z,101330.13
2023-04-07T01:55:35.957Z,101328.38
2023-04-07T01:58:07.626Z,101331.06
2023-04-07T02:00:37.398Z,101333.69
2023-04-07T02:03:23.393Z,101334.53
2023-04-07T02:06:02.750Z,101333.69
2023-04-07T02:08:33.163Z,101345.06
2023-04-07T02:11:03.840Z,101341.59
2023-04-07T02:13:37.792Z,101344.22
2023-04-07T02:16:08.524Z,101350.38
2023-04-07T02:18:38.311Z,101349.47
2023-04-07T02:21:08.836Z,101349.53
2023-04-07T02:23:37.384Z,101357.38
2023-04-07T02:26:05.339Z,101364.38
2023-04-07T02:28:32.902Z,101357.38
2023-04-07T02:31:00.553Z,101361.72
2023-04-07T02:33:28.098Z,101366.97
2023-04-07T02:35:55.952Z,101362.63
2023-04-07T02:38:23.544Z,101358.25
2023-04-07T02:40:51.459Z,101363.47
2023-04-07T02:43:21.172Z,101368.72
2023-04-07T02:45:52.212Z,101363.47
2023-04-07T02:48:19.762Z,101364.34
2023-04-07T02:50:47.417Z,101361.72
2023-04-07T02:53:14.968Z,101362.63
2023-04-07T02:55:42.641Z,101359.09
2023-04-07T02:58:10.361Z,101359.09
2023-04-07T03:00:42.299Z,101362.63
2023-04-07T03:03:14.360Z,101361.78
2023-04-07T03:05:47.426Z,101356.53
2023-04-07T03:08:15.585Z,101359.16
2023-04-07T03:10:43.952Z,101365.25
2023-04-07T03:13:13.652Z,101362.63
2023-04-07T03:15:41.274Z,101360.00
2023-04-07T03:18:08.943Z,101363.53
2023-04-07T03:20:36.601Z,101354.81
2023-04-07T03:23:10.166Z,101364.41
2023-04-07T03:25:37.842Z,101367.91
2023-04-07T03:28:06.633Z,101356.56
2023-04-07T03:30:37.404Z,101359.16
2023-04-07T03:33:05.479Z,101365.31
2023-04-07T03:35:33.564Z,101367.06
2023-04-07T03:38:01.174Z,101360.06
2023-04-07T03:40:28.793Z,101365.31
2023-04-07T03:42:56.507Z,101357.47
2023-04-07T03:45:24.330Z,101359.22
2023-04-07T03:47:54.315Z,101358.31
2023-04-07T03:50:23.029Z,101353.06
2023-04-07T03:53:02.676Z,101362.69
2023-04-07T03:55:33.787Z,101359.22
2023-04-07T03:58:09.813Z,101367.06
2023-04-07T04:00:38.411Z,101367.94
2023-04-07T04:03:11.066Z,101364.47
2023-04-07T04:05:46.500Z,101364.47
2023-04-07T04:08:21.053Z,101360.09
2023-04-07T04:10:48.677Z,101370.56
2023-04-07T04:13:16.598Z,101370.56
2023-04-07T04:15:44.335Z,101370.56
2023-04-07T04:18:15.698Z,101369.69
2023-04-07T04:20:43.459Z,101374.09
2023-04-07T04:23:11.281Z,101374.09
2023-04-07T04:25:40.815Z,101381.94
2023-04-07T04:28:11.232Z,101383.69
2023-04-07T04:30:39.078Z,101389.81
2023-04-07T04:33:07.330Z,101386.31
2023-04-07T04:35:41.794Z,101382.81
2023-04-07T04:38:12.873Z,101384.56
2023-04-07T04:40:45.395Z,101385.47
2023-04-07T04:43:14.458Z,101388.94
2023-04-07T04:45:42.830Z,101385.41
2023-04-07T04:48:12.798Z,101399.38
2023-04-07T04:50:43.217Z,101392.41
2023-04-07T04:53:13.276Z,101390.66
2023-04-07T04:55:52.130Z,101393.28
2023-04-07T04:58:24.846Z,101395.91
2023-04-07T05:01:00.376Z,101408.13
2023-04-07T05:03:42.515Z,101409.00
2023-04-07T05:06:22.912Z,101405.47
2023-04-07T05:08:52.487Z,101414.22
2023-04-07T05:11:23.975Z,101400.22
2023-04-07T05:13:54.249Z,101408.09
2023-04-07T05:16:22.205Z,101406.34
2023-04-07T05:18:50.574Z,101408.94
2023-04-07T05:21:20.342Z,101408.94
2023-04-07T05:23:48.355Z,101407.22
2023-04-07T05:26:16.265Z,101410.72
2023-04-07T05:28:44.408Z,101413.34
2023-04-07T05:31:17.756Z,101412.44
2023-04-07T05:33:47.195Z,101421.19
2023-04-07T05:36:15.593Z,101426.44
2023-04-07T05:38:43.392Z,101429.91
2023-04-07T05:41:15.576Z,101423.81
2023-04-07T05:43:43.548Z,101425.56
2023-04-07T05:46:11.828Z,101432.53
2023-04-07T05:48:48.025Z,101436.91
2023-04-07T05:51:16.534Z,101439.53
2023-04-07T05:53:44.205Z,101439.53
2023-04-07T05:56:11.893Z,101435.16
2023-04-07T05:58:46.255Z,101440.38
2023-04-07T06:01:15.599Z,101443.84
2023-04-07T06:03:43.848Z,101444.72
2023-04-07T06:06:21.359Z,101442.09
2023-04-07T06:08:48.966Z,101450.81
2023-04-07T06:11:16.603Z,101455.19
2023-04-07T06:13:44.273Z,101454.31
2023-04-07T06:16:12.049Z,101456.91
2023-04-07T06:18:40.771Z,101455.16
2023-04-07T06:21:08.308Z,101463.00
2023-04-07T06:23:36.023Z,101465.63
2023-04-07T06:26:12.136Z,101465.63
2023-04-07T06:28:40.365Z,101461.25
2023-04-07T06:31:08.911Z,101465.59
2023-04-07T06:33:37.602Z,101462.97
2023-04-07T06:36:05.423Z,101466.44
2023-04-07T06:38:33.297Z,101469.91
2023-04-07T06:41:00.862Z,101465.56
2023-04-07T06:43:28.598Z,101469.91
2023-04-07T06:46:01.859Z,101474.28
2023-04-07T06:48:29.460Z,101476.91
2023-04-07T06:50:56.998Z,101478.69
2023-04-07T06:53:24.547Z,101486.53
2023-04-07T06:55:52.104Z,101484.78
2023-04-07T06:58:19.604Z,101493.50
2023-04-07T07:00:47.134Z,101492.66
2023-04-07T07:03:15.089Z,101495.25
2023-04-07T07:05:42.740Z,101497.88
2023-04-07T07:08:10.251Z,101499.59
2023-04-07T07:10:37.802Z,101498.75
2023-04-07T07:13:05.336Z,101500.47
2023-04-07T07:15:32.872Z,101493.47
2023-04-07T07:18:00.455Z,101498.72
2023-04-07T07:20:28.105Z,101498.72
2023-04-07T07:22:56.601Z,101503.06
2023-04-07T07:25:26.820Z,101512.66
2023-04-07T07:27:54.654Z,101511.78
2023-04-07T07:30:24.657Z,101503.88
2023-04-07T07:32:53.772Z,101514.34
2023-04-07T07:35:22.247Z,101515.19
2023-04-07T07:37:49.829Z,101516.06
2023-04-07T07:40:18.287Z,101516.91
2023-04-07T07:42:47.255Z,101523.88
2023-04-07T07:45:15.033Z,101523.81
2023-04-07T07:47:42.747Z,101529.94
2023-04-07T07:50:10.413Z,101522.03
2023-04-07T07:52:37.970Z,101521.13
2023-04-07T07:55:05.987Z,101527.19
2023-04-07T07:57:33.524Z,101527.16
2023-04-07T08:00:01.112Z,101530.59
2023-04-07T08:02:31.444Z,101532.31
2023-04-07T08:04:59.384Z,101539.28
2023-04-07T08:07:27.406Z,101535.72
2023-04-07T08:09:54.918Z,101540.03
2023-04-07T08:12:22.826Z,101542.56
2023-04-07T08:14:50.638Z,101545.09
2023-04-07T08:17:20.877Z,101543.25
2023-04-07T08:19:48.462Z,101549.28
2023-04-07T08:22:16.075Z,101547.38
2023-04-07T08:24:43.584Z,101547.28
2023-04-07T08:27:11.199Z,101553.31
2023-04-07T08:29:38.820Z,101553.28
2023-04-07T08:32:06.339Z,101561.09
2023-04-07T08:34:33.930Z,101564.56
2023-04-07T08:37:01.556Z,101554.91
2023-04-07T08:39:29.102Z,101571.53
2023-04-07T08:41:58.686Z,101569.81
2023-04-07T08:44:30.026Z,101571.59
2023-04-07T08:47:01.457Z,101574.25
2023-04-07T08:49:32.998Z,101574.31
2023-04-07T08:52:07.871Z,101576.94
2023-04-07T08:54:37.141Z,101580.50
2023-04-07T08:57:06.003Z,101586.66
2023-04-07T08:59:35.198Z,101587.53
2023-04-07T09:02:05.508Z,101584.97
2023-04-07T09:04:33.345Z,101590.22
2023-04-07T09:07:02.174Z,101597.25
2023-04-07T09:09:29.901Z,101596.34
2023-04-07T09:11:58.814Z,101603.38
2023-04-07T09:14:26.456Z,101598.97
2023-04-07T09:16:55.848Z,101602.44
2023-04-07T09:19:27.408Z,101598.03
2023-04-07T09:21:55.422Z,101604.19
2023-04-07T09:24:28.632Z,101606.75
2023-04-07T09:27:19.122Z,101604.91
2023-04-07T09:29:48.145Z,101610.94
2023-04-07T09:32:39.564Z,101608.22
2023-04-07T09:35:08.571Z,101600.28
2023-04-07T09:37:36.742Z,101608.09
2023-04-07T09:40:05.722Z,101602.81
2023-04-07T09:42:36.371Z,101606.34
2023-04-07T09:45:04.440Z,101618.66
2023-04-07T09:47:33.250Z,101612.56
2023-04-07T09:50:06.808Z,101609.09
2023-04-07T09:52:52.684Z,101607.31
2023-04-07T09:55:24.709Z,101609.03
2023-04-07T09:57:55.407Z,101607.25
2023-04-07T10:00:24.205Z,101615.97
2023-04-07T10:02:53.306Z,101610.69
2023-04-07T10:05:22.913Z,101610.53
2023-04-07T10:07:51.958Z,101617.47
2023-04-07T10:10:20.409Z,101614.84
2023-04-07T10:12:53.104Z,101620.97
2023-04-07T10:15:21.826Z,101619.28
2023-04-07T10:17:51.724Z,101623.69
2023-04-07T10:20:22.797Z,101621.13
2023-04-07T10:22:53.666Z,101621.19
2023-04-07T10:25:26.097Z,101617.72
2023-04-07T10:28:05.534Z,101620.28
2023-04-07T10:30:34.843Z,101629.94
2023-04-07T10:33:02.572Z,101624.59
2023-04-07T10:36:07.089Z,101632.44
2023-04-07T10:38:34.650Z,101625.44
2023-04-07T10:41:43.767Z,101636.81
2023-04-07T10:44:43.012Z,101636.84
2023-04-07T10:47:10.721Z,101629.88
2023-04-07T10:49:38.719Z,101635.13
2023-04-07T10:52:12.440Z,101635.97
2023-04-07T10:54:41.492Z,101644.78
2023-04-07T10:57:13.232Z,101649.19
2023-04-07T11:00:04.416Z,101644.03
2023-04-07T11:02:32.974Z,101647.63
2023-04-07T11:05:01.378Z,101653.78
2023-04-07T11:07:55.149Z,101657.31
2023-04-07T11:10:23.369Z,101655.63
2023-04-07T11:13:07.896Z,101653.91
2023-04-07T11:15:40.335Z,101661.78
2023-04-07T11:18:24.438Z,101656.59
2023-04-07T11:20:59.070Z,101660.94
2023-04-07T11:23:29.652Z,101666.19
2023-04-07T11:26:02.921Z,101663.53
2023-04-07T11:28:31.469Z,101666.09
2023-04-07T11:31:00.289Z,101667.75
2023-04-07T11:33:31.458Z,101662.44
2023-04-07T11:36:02.136Z,101666.75
2023-04-07T11:38:38.714Z,101667.56
2023-04-07T11:41:16.028Z,101662.25
2023-04-07T11:43:43.753Z,101670.06
2023-04-07T11:46:15.151Z,101671.78
2023-04-07T11:48:45.825Z,101670.88
2023-04-07T11:51:19.589Z,101672.56
2023-04-07T11:53:48.138Z,101669.91
2023-04-07T11:56:18.612Z,101675.94
2023-04-07T11:58:55.516Z,101673.25
2023-04-07T12:01:24.820Z,101676.72
2023-04-07T12:04:02.227Z,101683.84
2023-04-07T12:06:35.595Z,101688.31
2023-04-07T12:09:04.770Z,101690.19
2023-04-07T12:11:33.172Z,101700.00
2023-04-07T12:14:01.380Z,101699.19
2023-04-07T12:16:29.008Z,101706.31
2023-04-07T12:18:57.580Z,101701.06
2023-04-07T12:21:26.735Z,101710.72
2023-04-07T12:23:54.290Z,101711.56
2023-04-07T12:26:23.371Z,101706.31
2023-04-07T12:28:51.519Z,101712.38
2023-04-07T12:31:19.528Z,101714.06
2023-04-07T12:33:47.461Z,101723.66
2023-04-07T12:36:15.598Z,101716.63
2023-04-07T12:38:43.517Z,101712.25
2023-04-07T12:41:11.036Z,101715.75
2023-04-07T12:43:38.583Z,101720.09
2023-04-07T12:46:06.421Z,101723.50
2023-04-07T12:48:33.950Z,101722.56
2023-04-07T12:51:01.782Z,101722.50
2023-04-07T12:53:29.452Z,101724.16
2023-04-07T12:55:57.791Z,101715.28
2023-04-07T12:58:26.754Z,101725.66
2023-04-07T13:00:54.320Z,101722.84
2023-04-07T13:03:22.004Z,101726.19
2023-04-07T13:05:50.178Z,101725.22
2023-04-07T13:08:17.703Z,101717.22
2023-04-07T13:10:45.238Z,101732.06
2023-04-07T13:13:12.795Z,101733.78
2023-04-07T13:15:40.332Z,101732.09
2023-04-07T13:18:08.234Z,101731.31
2023-04-07T13:20:36.054Z,101730.50
2023-04-07T13:23:08.384Z,101727.03
2023-04-07T13:25:38.249Z,101735.88
2023-04-07T13:28:06.530Z,101741.19
2023-04-07T13:30:34.204Z,101736.88
2023-04-07T13:33:02.017Z,101736.09
2023-04-07T13:35:31.111Z,101740.53
2023-04-07T13:37:59.033Z,101743.22
2023-04-07T13:40:26.584Z,101738.81
2023-04-07T13:42:54.120Z,101734.41
2023-04-07T13:45:21.656Z,101734.34
2023-04-07T13:47:50.663Z,101734.22
2023-04-07T13:50:18.444Z,101731.44
2023-04-07T13:52:46.707Z,101730.41
2023-04-07T13:55:16.003Z,101739.91
2023-04-07T13:57:43.571Z,101735.41
2023-04-07T14:00:12.009Z,101732.72
2023-04-07T14:02:39.946Z,101738.78
2023-04-07T14:05:07.765Z,101750.25
2023-04-07T14:07:35.324Z,101744.22
2023-04-07T14:10:03.162Z,101734.75
2023-04-07T14:12:30.737Z,101741.88
2023-04-07T14:14:58.309Z,101735.88
2023-04-07T14:17:26.140Z,101737.66
2023-04-07T14:19:53.966Z,101734.13
2023-04-07T14:22:21.536Z,101739.38
2023-04-07T14:24:49.325Z,101733.22
2023-04-07T14:27:21.028Z,101735.91
2023-04-07T14:29:49.092Z,101740.28
2023-04-07T14:32:17.141Z,101736.78
2023-04-07T14:34:44.743Z,101737.63
2023-04-07T14:37:14.025Z,101749.84
2023-04-07T14:39:45.895Z,101744.50
2023-04-07T14:42:20.663Z,101734.00
2023-04-07T14:44:48.236Z,101740.09
2023-04-07T14:47:15.998Z,101741.75
2023-04-07T14:49:43.701Z,101743.38
2023-04-07T14:52:13.508Z,101746.00
2023-04-07T14:54:41.331Z,101750.34
2023-04-07T14:57:09.098Z,101745.09
2023-04-07T14:59:36.612Z,101751.25
2023-04-07T15:02:04.256Z,101753.88
2023-04-07T15:04:32.099Z,101756.47
2023-04-07T15:06:59.809Z,101749.44
2023-04-07T15:09:27.383Z,101754.72
2023-04-07T15:11:59.394Z,101758.22
2023-04-07T15:14:27.064Z,101755.63
2023-04-07T15:16:54.661Z,101762.72
2023-04-07T15:19:22.283Z,101761.03
2023-04-07T15:21:52.226Z,101762.81
2023-04-07T15:24:25.217Z,101750.63
2023-04-07T15:26:52.861Z,101759.44
2023-04-07T15:29:20.470Z,101766.50
2023-04-07T15:31:48.160Z,101773.59
2023-04-07T15:34:15.865Z,101759.59
2023-04-07T15:36:43.417Z,101764.06
2023-04-07T15:39:10.962Z,101763.19
2023-04-07T15:41:38.643Z,101770.31
2023-04-07T15:44:06.475Z,101771.25
2023-04-07T15:46:34.113Z,101781.84
2023-04-07T15:49:01.830Z,101767.91
2023-04-07T15:51:29.730Z,101774.97
2023-04-07T15:53:57.367Z,101775.88
2023-04-07T15:56:25.066Z,101775.03
2023-04-07T15:58:52.722Z,101780.22
2023-04-07T16:01:20.805Z,101781.09
2023-04-07T16:03:48.788Z,101779.31
2023-04-07T16:06:16.667Z,101788.94
2023-04-07T16:08:44.300Z,101788.88
2023-04-07T16:11:11.960Z,101793.28
2023-04-07T16:13:39.636Z,101797.69
2023-04-07T16:16:07.749Z,101792.47
2023-04-07T16:18:38.112Z,101801.25
2023-04-07T16:21:08.632Z,101802.19
2023-04-07T16:23:36.290Z,101794.44
2023-04-07T16:26:04.458Z,101799.69
2023-04-07T16:28:34.699Z,101803.19
2023-04-07T16:31:02.951Z,101797.97
2023-04-07T16:33:30.624Z,101797.16
2023-04-07T16:35:58.357Z,101804.19
2023-04-07T16:38:27.400Z,101806.84
2023-04-07T16:41:03.754Z,101810.38
2023-04-07T16:43:32.414Z,101805.19
2023-04-07T16:46:00.635Z,101806.97
2023-04-07T16:48:28.240Z,101813.13
2023-04-07T16:50:55.912Z,101813.13
2023-04-07T16:53:23.489Z,101814.06
2023-04-07T16:55:51.056Z,101818.44
2023-04-07T16:58:19.668Z,101819.31
2023-04-07T17:00:47.625Z,101825.44
2023-04-07T17:03:15.682Z,101836.84
2023-04-07T17:05:45.637Z,101825.47
2023-04-07T17:08:13.243Z,101831.63
2023-04-07T17:10:40.959Z,101838.63
2023-04-07T17:13:08.520Z,101835.13
2023-04-07T17:15:38.803Z,101844.78
2023-04-07T17:18:09.176Z,101844.78
2023-04-07T17:20:39.869Z,101843.91
2023-04-07T17:23:10.646Z,101854.44
2023-04-07T17:25:38.308Z,101857.97
2023-04-07T17:28:06.854Z,101855.34
2023-04-07T17:30:38.587Z,101869.34
2023-04-07T17:33:08.175Z,101871.16
2023-04-07T17:35:36.253Z,101875.56
2023-04-07T17:38:04.066Z,101874.69
2023-04-07T17:40:32.992Z,101881.69
2023-04-07T17:43:00.599Z,101886.94
2023-04-07T17:45:28.328Z,101886.94
2023-04-07T17:47:56.079Z,101883.44
2023-04-07T17:50:23.675Z,101891.31
2023-04-07T17:52:51.966Z,101887.84
2023-04-07T17:55:19.697Z,101890.47
2023-04-07T17:57:47.297Z,101894.84
2023-04-07T18:00:15.365Z,101904.50
2023-04-07T18:02:43.134Z,101901.88
2023-04-07T18:05:11.223Z,101899.25
2023-04-07T18:07:38.942Z,101904.50
2023-04-07T18:10:07.411Z,101911.53
2023-04-07T18:12:35.427Z,101908.03
2023-04-07T18:15:04.575Z,101916.78
2023-04-07T18:17:32.173Z,101911.53
2023-04-07T18:19:59.894Z,101915.06
2023-04-07T18:22:34.973Z,101915.06
2023-04-07T18:25:12.749Z,101910.69
2023-04-07T18:27:40.428Z,101910.69
2023-04-07T18:30:09.467Z,101912.47
2023-04-07T18:32:37.134Z,101912.47
2023-04-07T18:35:06.598Z,101916.84
2023-04-07T18:37:35.382Z,101922.97
2023-04-07T18:40:03.253Z,101929.13
2023-04-07T18:42:31.986Z,101922.16
2023-04-07T18:45:00.110Z,101927.41
2023-04-07T18:47:29.837Z,101933.56
2023-04-07T18:50:00.221Z,101942.31
2023-04-07T18:52:27.764Z,101942.31
2023-04-07T18:54:55.952Z,101939.69
2023-04-07T18:57:23.555Z,101944.94
2023-04-07T18:59:52.858Z,101955.47
2023-04-07T19:02:21.119Z,101964.22
2023-04-07T19:04:49.982Z,101965.97
2023-04-07T19:07:22.205Z,101961.63
2023-04-07T19:09:52.987Z,101975.63
2023-04-07T19:12:20.859Z,101974.75
2023-04-07T19:14:56.274Z,101981.72
2023-04-07T19:17:24.692Z,101980.00
2023-04-07T19:19:52.188Z,101989.63
2023-04-07T19:22:31.231Z,101987.00
2023-04-07T19:24:59.037Z,101983.53
2023-04-07T19:27:30.245Z,101985.28
2023-04-07T19:29:58.819Z,101994.03
2023-04-07T19:32:28.243Z,101984.44
2023-04-07T19:35:02.007Z,101981.81
2023-04-07T19:37:29.678Z,101990.56
2023-04-07T19:40:02.984Z,101996.72
2023-04-07T19:42:31.960Z,101992.31
2023-04-07T19:45:04.971Z,102000.22
2023-04-07T19:47:32.659Z,102001.97
2023-04-07T19:50:00.819Z,102001.97
2023-04-07T19:52:40.059Z,101999.34
2023-04-07T19:55:10.589Z,102007.22
2023-04-07T19:57:40.296Z,102004.59
2023-04-07T20:00:10.033Z,102008.09
2023-04-07T20:03:04.076Z,102015.09
2023-04-07T20:05:33.238Z,102020.34
2023-04-07T20:08:03.239Z,102022.09
2023-04-07T20:10:30.799Z,102020.34
2023-04-07T20:12:58.570Z,102027.34
2023-04-07T20:15:26.216Z,102024.72
2023-04-07T20:17:53.840Z,102029.09
2023-04-07T20:20:22.299Z,102020.34
2023-04-07T20:22:49.815Z,102026.50
2023-04-07T20:25:17.344Z,102033.47
2023-04-07T20:27:48.887Z,102034.31
2023-04-07T20:30:16.840Z,102030.84
2023-04-07T20:32:46.203Z,102039.59
2023-04-07T20:35:13.956Z,102039.59
2023-04-07T20:37:42.105Z,102040.50
2023-04-07T20:40:10.307Z,102043.97
2023-04-07T20:42:38.780Z,102043.97
2023-04-07T20:45:07.741Z,102048.34
2023-04-07T20:47:36.764Z,102047.50
2023-04-07T20:50:04.937Z,102049.22
2023-04-07T20:52:32.526Z,102051.84
2023-04-07T20:55:00.072Z,102051.84
2023-04-07T20:57:28.376Z,102044.84
2023-04-07T20:59:55.952Z,102054.50
2023-04-07T21:02:23.605Z,102055.34
2023-04-07T21:04:51.843Z,102057.97
2023-04-07T21:07:19.486Z,102055.34
2023-04-07T21:09:47.012Z,102053.63
2023-04-07T21:12:14.774Z,102063.25
2023-04-07T21:14:42.648Z,102054.47
2023-04-07T21:17:10.390Z,102052.75
2023-04-07T21:19:37.985Z,102052.75
2023-04-07T21:22:05.637Z,102053.59
2023-04-07T21:24:33.273Z,102057.13
2023-04-07T21:27:01.152Z,102057.97
2023-04-07T21:29:31.780Z,102057.13
2023-04-07T21:32:01.751Z,102050.09
2023-04-07T21:34:29.470Z,102054.50
2023-04-07T21:36:57.065Z,102059.75
2023-04-07T21:39:24.756Z,102056.25
2023-04-07T21:41:52.865Z,102062.38
2023-04-07T21:44:21.395Z,102058.88
2023-04-07T21:46:49.083Z,102054.50
2023-04-07T21:49:22.250Z,102058.88
2023-04-07T21:51:49.912Z,102058.88
2023-04-07T21:54:17.521Z,102058.00
2023-04-07T21:56:48.966Z,102063.25
2023-04-07T21:59:17.690Z,102059.75
2023-04-07T22:01:46.943Z,102060.63
2023-04-07T22:04:14.980Z,102063.25
2023-04-07T22:06:42.617Z,102065.00
2023-04-07T22:09:10.708Z,102065.84
2023-04-07T22:11:38.375Z,102070.22
2023-04-07T22:14:05.934Z,102061.50
2023-04-07T22:16:33.588Z,102073.75
2023-04-07T22:19:01.187Z,102071.97
2023-04-07T22:21:28.970Z,102071.13
2023-04-07T22:23:56.511Z,102076.34
2023-04-07T22:26:24.106Z,102077.25
2023-04-07T22:28:51.857Z,102077.22
2023-04-07T22:31:19.564Z,102078.97
2023-04-07T22:33:47.149Z,102078.09
2023-04-07T22:36:14.723Z,102085.97
2023-04-07T22:39:03.138Z,102086.84
2023-04-07T22:41:33.920Z,102086.84
2023-04-07T22:44:01.501Z,102083.34
2023-04-07T22:46:29.213Z,102085.09
2023-04-07T22:48:57.149Z,102086.84
2023-04-07T22:51:25.520Z,102086.84
2023-04-07T22:53:53.073Z,102084.22
2023-04-07T22:56:20.829Z,102092.06
2023-04-07T22:58:48.635Z,102092.97
2023-04-07T23:01:16.795Z,102093.81
2023-04-07T23:03:44.402Z,102092.09
2023-04-07T23:06:11.957Z,102092.97
2023-04-07T23:08:39.555Z,102094.72
2023-04-07T23:11:10.384Z,102092.09
2023-04-07T23:13:38.433Z,102094.69
2023-04-07T23:16:06.580Z,102092.06
2023-04-07T23:18:34.233Z,102099.06
2023-04-07T23:21:01.911Z,102098.19
2023-04-07T23:23:29.494Z,102092.06
2023-04-07T23:25:57.081Z,102087.72
2023-04-07T23:28:24.595Z,102101.69
2023-04-07T23:30:52.164Z,102103.44
2023-04-07T23:33:19.810Z,102100.81
2023-04-07T23:35:47.536Z,102099.09
2023-04-07T23:38:15.686Z,102103.44
2023-04-07T23:40:43.221Z,102105.19
2023-04-07T23:43:10.914Z,102101.69
2023-04-07T23:45:38.599Z,102106.94
2023-04-07T23:48:06.599Z,102113.94
2023-04-07T23:50:34.148Z,102111.31
2023-04-07T23:53:02.791Z,102106.06
2023-04-07T23:55:30.338Z,102115.66
2023-04-07T23:57:57.919Z,102119.19
